Time;durP1;ratioP1;P1;durP2;ratioP2;P2;SDS_P1;SDS_P2;PMS_P1;PMS_P2;Temp;Humidity;BMP_temperature;BMP_pressure;BME280_temperature;BME280_humidity;BME280_pressure;Samples;Min_cycle;Max_cycle;Signal;HPM_P1;HPM_P2
2023/05/12 00:00:37;;;;;;;469.77;59.40;;;;;;;;;;5033621;28;20076;-66
2023/05/12 00:03:03;;;;;;;298.07;55.97;;;;;;;;;;5035965;28;20027;-65
2023/05/12 00:05:28;;;;;;;312.33;54.00;;;;;;;;;;5035413;28;20073;-66
2023/05/12 00:07:54;;;;;;;326.07;55.03;;;;;;;;;;5036058;28;20040;-66
2023/05/12 00:10:19;;;;;;;322.80;54.50;;;;;;;;;;5034829;28;20496;-65
2023/05/12 00:12:45;;;;;;;319.43;53.70;;;;;;;;;;5035782;28;20489;-66
2023/05/12 00:15:10;;;;;;;341.00;55.40;;;;;;;;;;5035690;28;20030;-66
2023/05/12 00:17:35;;;;;;;364.67;55.07;;;;;;;;;;5035176;28;20027;-66
2023/05/12 00:20:04;;;;;;;269.23;54.13;;;;;;;;;;5036266;28;20075;-66
2023/05/12 00:22:30;;;;;;;248.80;53.83;;;;;;;;;;5034814;28;20025;-66
2023/05/12 00:24:55;;;;;;;277.13;55.80;;;;;;;;;;5034401;28;20023;-66
2023/05/12 00:27:20;;;;;;;240.10;54.90;;;;;;;;;;5035343;28;20064;-66
2023/05/12 00:29:45;;;;;;;227.67;54.40;;;;;;;;;;5035053;28;20026;-65
2023/05/12 00:32:11;;;;;;;272.50;56.10;;;;;;;;;;5034721;28;20032;-66
2023/05/12 00:34:36;;;;;;;251.77;54.97;;;;;;;;;;5035741;28;20049;-66
2023/05/12 00:37:01;;;;;;;265.33;55.13;;;;;;;;;;5035344;28;20029;-66
2023/05/12 00:39:27;;;;;;;341.60;59.67;;;;;;;;;;5034952;28;20072;-66
2023/05/12 00:41:55;;;;;;;335.23;57.70;;;;;;;;;;5033371;28;20021;-66
2023/05/12 00:44:21;;;;;;;306.33;56.30;;;;;;;;;;5035620;28;20040;-66
2023/05/12 00:46:46;;;;;;;291.60;53.03;;;;;;;;;;5035378;28;20018;-66
2023/05/12 00:49:11;;;;;;;244.67;55.00;;;;;;;;;;5035143;28;20025;-67
2023/05/12 00:51:37;;;;;;;222.50;54.33;;;;;;;;;;5034230;28;20028;-65
2023/05/12 00:54:02;;;;;;;243.83;54.67;;;;;;;;;;5035524;28;20481;-65
2023/05/12 00:56:28;;;;;;;258.63;55.70;;;;;;;;;;5034411;28;20033;-65
2023/05/12 00:58:53;;;;;;;296.30;55.53;;;;;;;;;;5035228;28;20021;-66
2023/05/12 01:04:12;;;;;;;265.10;55.53;;;;;;;;;;5011604;28;20048;-66
2023/05/12 01:06:41;;;;;;;275.80;55.80;;;;;;;;;;5014125;28;20025;-68
2023/05/12 01:09:07;;;;;;;282.47;56.23;;;;;;;;;;5014923;28;20022;-67
2023/05/12 01:11:32;;;;;;;261.87;55.40;;;;;;;;;;5013160;28;20021;-68
2023/05/12 01:13:58;;;;;;;276.03;56.77;;;;;;;;;;5009102;28;20030;-67
2023/05/12 01:16:25;;;;;;;260.83;55.27;;;;;;;;;;5010720;28;20372;-68
2023/05/12 01:18:52;;;;;;;256.97;55.47;;;;;;;;;;5010824;28;20022;-68
2023/05/12 01:21:18;;;;;;;251.87;55.80;;;;;;;;;;5009906;28;20399;-68
2023/05/12 01:23:45;;;;;;;278.80;55.67;;;;;;;;;;5014454;28;20018;-68
2023/05/12 01:26:10;;;;;;;290.73;55.53;;;;;;;;;;5014072;28;20029;-68
2023/05/12 01:28:36;;;;;;;297.47;56.03;;;;;;;;;;5013254;28;20022;-68
2023/05/12 01:31:02;;;;;;;227.93;50.97;;;;;;;;;;5006135;28;20018;-68
2023/05/12 01:33:28;;;;;;;210.33;49.33;;;;;;;;;;5010027;28;20381;-69
2023/05/12 01:35:53;;;;;;;192.43;48.47;;;;;;;;;;5004882;28;20030;-68
2023/05/12 01:38:18;;;;;;;245.87;51.67;;;;;;;;;;5011331;28;20422;-67
2023/05/12 01:40:44;;;;;;;251.73;51.03;;;;;;;;;;5013470;28;20032;-68
2023/05/12 01:43:09;;;;;;;240.90;49.10;;;;;;;;;;5000344;28;20027;-67
2023/05/12 01:45:35;;;;;;;280.37;54.10;;;;;;;;;;5009629;28;20041;-68
2023/05/12 01:48:00;;;;;;;277.17;51.93;;;;;;;;;;5013371;28;20014;-68
2023/05/12 01:50:26;;;;;;;285.87;52.53;;;;;;;;;;5011868;28;20030;-68
2023/05/12 01:52:51;;;;;;;243.27;49.47;;;;;;;;;;5009683;28;20101;-68
2023/05/12 01:55:16;;;;;;;212.47;48.80;;;;;;;;;;4996805;28;20083;-68
2023/05/12 01:57:41;;;;;;;188.33;47.33;;;;;;;;;;5005061;28;20084;-68
2023/05/12 02:00:07;;;;;;;236.37;51.47;;;;;;;;;;4996946;28;20026;-68
2023/05/12 02:02:33;;;;;;;279.57;54.10;;;;;;;;;;5013889;28;20521;-68
2023/05/12 02:04:58;;;;;;;242.13;48.33;;;;;;;;;;5011436;28;20018;-67
2023/05/12 02:07:24;;;;;;;245.33;51.23;;;;;;;;;;4999972;28;20474;-67
2023/05/12 02:09:49;;;;;;;247.03;52.83;;;;;;;;;;5010962;28;20034;-67
2023/05/12 02:12:15;;;;;;;276.00;53.40;;;;;;;;;;5011483;28;20394;-67
2023/05/12 02:14:40;;;;;;;297.43;54.33;;;;;;;;;;5010174;28;20053;-68
2023/05/12 02:17:05;;;;;;;232.03;52.83;;;;;;;;;;5012864;28;20029;-68
2023/05/12 02:19:31;;;;;;;253.43;56.23;;;;;;;;;;5003618;28;20026;-68
2023/05/12 02:21:56;;;;;;;275.17;55.33;;;;;;;;;;5011860;28;20084;-68
2023/05/12 02:24:21;;;;;;;323.30;55.67;;;;;;;;;;4994512;28;20030;-68
2023/05/12 02:26:46;;;;;;;525.70;60.90;;;;;;;;;;5011574;28;20033;-68
2023/05/12 02:29:12;;;;;;;343.40;55.13;;;;;;;;;;5013653;28;20141;-68
2023/05/12 02:31:37;;;;;;;302.37;49.20;;;;;;;;;;5012888;28;20429;-68
2023/05/12 02:34:03;;;;;;;225.23;49.40;;;;;;;;;;5013536;28;20025;-68
2023/05/12 02:36:28;;;;;;;225.07;49.37;;;;;;;;;;5012432;28;20424;-68
2023/05/12 02:38:53;;;;;;;257.20;51.93;;;;;;;;;;5013636;28;20041;-67
2023/05/12 02:41:19;;;;;;;239.53;50.53;;;;;;;;;;5012683;28;20038;-68
2023/05/12 02:43:44;;;;;;;228.03;49.47;;;;;;;;;;5013323;28;20112;-68
2023/05/12 02:46:10;;;;;;;280.73;54.40;;;;;;;;;;5006287;28;20107;-68
2023/05/12 02:48:35;;;;;;;233.53;52.37;;;;;;;;;;5007172;28;20467;-68
2023/05/12 02:51:00;;;;;;;259.43;52.73;;;;;;;;;;5003836;28;20026;-68
2023/05/12 02:53:26;;;;;;;235.87;52.37;;;;;;;;;;5002132;28;20037;-68
2023/05/12 02:55:51;;;;;;;216.73;50.73;;;;;;;;;;5003825;28;20097;-71
2023/05/12 02:58:17;;;;;;;218.53;51.53;;;;;;;;;;5010975;28;20033;-71
2023/05/12 03:00:42;;;;;;;311.00;55.87;;;;;;;;;;5003122;28;20026;-71
2023/05/12 03:03:07;;;;;;;407.07;60.67;;;;;;;;;;5004677;28;20536;-71
2023/05/12 03:05:33;;;;;;;517.17;60.13;;;;;;;;;;5003608;28;20029;-71
2023/05/12 03:07:58;;;;;;;498.27;59.07;;;;;;;;;;5007073;28;20065;-71
2023/05/12 03:10:23;;;;;;;502.30;60.77;;;;;;;;;;5003190;28;20030;-71
2023/05/12 03:12:48;;;;;;;353.13;57.00;;;;;;;;;;5009009;28;20075;-71
2023/05/12 03:15:14;;;;;;;405.77;59.77;;;;;;;;;;5011291;28;20113;-71
2023/05/12 03:17:39;;;;;;;345.97;58.13;;;;;;;;;;5013463;28;20421;-71
2023/05/12 03:20:05;;;;;;;293.83;55.70;;;;;;;;;;5005975;28;20034;-71
2023/05/12 03:22:31;;;;;;;355.93;57.07;;;;;;;;;;5002821;28;20034;-71
2023/05/12 03:24:56;;;;;;;331.13;57.20;;;;;;;;;;5012146;28;20034;-71
2023/05/12 03:27:21;;;;;;;314.73;56.57;;;;;;;;;;5013152;28;20101;-71
2023/05/12 03:29:46;;;;;;;384.33;59.60;;;;;;;;;;5011058;28;20030;-71
2023/05/12 03:32:12;;;;;;;287.87;57.07;;;;;;;;;;5011272;28;20040;-71
2023/05/12 03:34:37;;;;;;;271.90;55.77;;;;;;;;;;5007343;28;20466;-71
2023/05/12 03:37:02;;;;;;;242.00;55.10;;;;;;;;;;4995908;28;20034;-71
2023/05/12 03:39:28;;;;;;;236.10;55.10;;;;;;;;;;5007207;28;20088;-71
2023/05/12 03:41:53;;;;;;;261.10;56.50;;;;;;;;;;5011088;28;20548;-71
2023/05/12 03:44:18;;;;;;;251.87;54.87;;;;;;;;;;5013088;28;20030;-71
2023/05/12 03:46:44;;;;;;;244.50;53.77;;;;;;;;;;5013122;28;20405;-71
2023/05/12 03:49:09;;;;;;;214.07;52.10;;;;;;;;;;5012021;28;20105;-71
2023/05/12 03:51:34;;;;;;;200.50;51.67;;;;;;;;;;5006846;28;20029;-71
2023/05/12 03:54:00;;;;;;;209.30;53.30;;;;;;;;;;4998793;28;20382;-71
2023/05/12 03:56:26;;;;;;;222.20;53.30;;;;;;;;;;5011401;28;20030;-71
2023/05/12 03:58:51;;;;;;;218.10;54.40;;;;;;;;;;5012150;28;20030;-71
2023/05/12 04:01:17;;;;;;;222.90;54.33;;;;;;;;;;5010986;28;20513;-71
2023/05/12 04:03:42;;;;;;;218.03;55.17;;;;;;;;;;4994278;28;20053;-71
2023/05/12 04:06:07;;;;;;;216.33;53.57;;;;;;;;;;5012612;28;20385;-71
2023/05/12 04:08:33;;;;;;;207.53;53.37;;;;;;;;;;5003465;28;20098;-71
2023/05/12 04:10:59;;;;;;;205.80;51.40;;;;;;;;;;5005735;28;20030;-71
2023/05/12 04:13:25;;;;;;;220.33;54.23;;;;;;;;;;5008812;28;20022;-71
2023/05/12 04:15:50;;;;;;;208.40;53.60;;;;;;;;;;4995874;28;20023;-71
2023/05/12 04:18:16;;;;;;;203.13;52.33;;;;;;;;;;4995356;28;20015;-71
2023/05/12 04:20:42;;;;;;;189.90;51.63;;;;;;;;;;4997591;28;20018;-71
2023/05/12 04:23:07;;;;;;;189.37;50.97;;;;;;;;;;5013917;28;20033;-71
2023/05/12 04:25:32;;;;;;;185.97;49.97;;;;;;;;;;5015306;28;20026;-71
2023/05/12 04:27:57;;;;;;;178.50;49.80;;;;;;;;;;5011663;28;20092;-71
2023/05/12 04:30:23;;;;;;;191.93;50.47;;;;;;;;;;5010929;28;20082;-71
2023/05/12 04:32:48;;;;;;;200.23;52.03;;;;;;;;;;5004222;28;20340;-71
2023/05/12 04:35:14;;;;;;;187.10;50.93;;;;;;;;;;5015260;28;20084;-70
2023/05/12 04:37:39;;;;;;;186.07;51.60;;;;;;;;;;5015495;28;20394;-71
2023/05/12 04:40:06;;;;;;;184.90;50.77;;;;;;;;;;5014732;28;20030;-71
2023/05/12 04:42:31;;;;;;;181.40;50.80;;;;;;;;;;5015572;28;20061;-71
2023/05/12 04:44:56;;;;;;;165.93;49.50;;;;;;;;;;5013768;28;20050;-71
2023/05/12 04:47:21;;;;;;;170.57;50.00;;;;;;;;;;5014500;28;20379;-71
2023/05/12 04:49:47;;;;;;;161.63;50.70;;;;;;;;;;5005089;28;20149;-71
2023/05/12 04:52:12;;;;;;;168.57;52.27;;;;;;;;;;5013898;28;20024;-71
2023/05/12 04:54:37;;;;;;;177.23;54.07;;;;;;;;;;5004933;28;20075;-71
2023/05/12 04:57:03;;;;;;;174.60;54.20;;;;;;;;;;5014918;28;20463;-71
2023/05/12 04:59:30;;;;;;;181.93;55.17;;;;;;;;;;5015683;28;20026;-71
2023/05/12 05:01:55;;;;;;;197.90;58.00;;;;;;;;;;5014594;28;20473;-71
2023/05/12 05:04:21;;;;;;;177.17;57.83;;;;;;;;;;5011856;28;20040;-71
2023/05/12 05:06:46;;;;;;;174.37;55.60;;;;;;;;;;5005860;28;20033;-71
2023/05/12 05:09:11;;;;;;;172.97;57.20;;;;;;;;;;5007716;28;20466;-72
2023/05/12 05:11:37;;;;;;;173.40;56.80;;;;;;;;;;5005546;28;20043;-71
2023/05/12 05:14:02;;;;;;;159.60;53.63;;;;;;;;;;5015754;28;20076;-71
2023/05/12 05:16:28;;;;;;;160.77;54.40;;;;;;;;;;5015365;28;20481;-71
2023/05/12 05:18:53;;;;;;;151.97;54.20;;;;;;;;;;5003033;28;20068;-71
2023/05/12 05:21:18;;;;;;;146.73;53.77;;;;;;;;;;5011235;28;20026;-71
2023/05/12 05:23:43;;;;;;;156.70;53.67;;;;;;;;;;5014060;28;20068;-71
2023/05/12 05:26:09;;;;;;;147.93;52.50;;;;;;;;;;5013851;28;20466;-71
2023/05/12 05:28:34;;;;;;;141.23;49.77;;;;;;;;;;5013906;28;20076;-71
2023/05/12 05:31:00;;;;;;;134.63;51.97;;;;;;;;;;5012295;28;20026;-71
2023/05/12 05:33:25;;;;;;;125.50;49.53;;;;;;;;;;5014152;28;20037;-71
2023/05/12 05:35:51;;;;;;;132.57;50.77;;;;;;;;;;5015119;28;20034;-71
2023/05/12 05:38:16;;;;;;;121.73;48.43;;;;;;;;;;5001764;28;20030;-71
2023/05/12 05:40:41;;;;;;;114.50;46.73;;;;;;;;;;4999704;28;20021;-71
2023/05/12 05:43:07;;;;;;;113.77;47.93;;;;;;;;;;5014696;28;20053;-71
2023/05/12 05:45:32;;;;;;;114.53;46.27;;;;;;;;;;5014706;28;20026;-71
2023/05/12 05:47:57;;;;;;;102.33;44.10;;;;;;;;;;5014464;28;20479;-72
2023/05/12 05:50:23;;;;;;;114.40;45.93;;;;;;;;;;5013944;28;20025;-71
2023/05/12 05:52:48;;;;;;;102.73;43.87;;;;;;;;;;5012745;28;20455;-72
2023/05/12 05:55:13;;;;;;;98.00;41.50;;;;;;;;;;5006293;28;20049;-71
2023/05/12 05:57:39;;;;;;;97.20;42.23;;;;;;;;;;4994660;28;20022;-71
2023/05/12 06:00:05;;;;;;;102.20;42.63;;;;;;;;;;4994931;28;20034;-71
2023/05/12 06:02:32;;;;;;;84.53;37.23;;;;;;;;;;4994524;28;20133;-71
2023/05/12 06:04:58;;;;;;;79.75;36.92;;;;;;;;;;4995493;28;20029;-71
2023/05/12 06:07:24;;;;;;;82.93;39.20;;;;;;;;;;4994746;28;20170;-71
2023/05/12 06:09:49;;;;;;;77.57;37.80;;;;;;;;;;4999044;28;20026;-70
2023/05/12 06:12:14;;;;;;;79.07;37.90;;;;;;;;;;5014339;28;20026;-71
2023/05/12 06:14:39;;;;;;;67.17;33.20;;;;;;;;;;5013140;28;20058;-71
2023/05/12 06:17:05;;;;;;;61.97;29.90;;;;;;;;;;5014107;28;20049;-71
2023/05/12 06:19:30;;;;;;;53.67;29.37;;;;;;;;;;5014185;28;20029;-71
2023/05/12 06:21:55;;;;;;;54.03;30.67;;;;;;;;;;5012638;28;20030;-71
2023/05/12 06:24:21;;;;;;;50.10;30.60;;;;;;;;;;5013797;28;20026;-71
2023/05/12 06:26:46;;;;;;;48.80;29.73;;;;;;;;;;5012954;28;20080;-71
2023/05/12 06:29:11;;;;;;;42.10;27.75;;;;;;;;;;5014059;28;20064;-71
2023/05/12 06:31:36;;;;;;;39.17;26.35;;;;;;;;;;5011623;28;20014;-71
2023/05/12 06:34:03;;;;;;;39.55;26.95;;;;;;;;;;5014055;28;20101;-70
2023/05/12 06:36:29;;;;;;;35.63;24.80;;;;;;;;;;5031047;28;20112;-71
2023/05/12 06:38:54;;;;;;;33.92;23.80;;;;;;;;;;5014809;28;20109;-71
2023/05/12 06:41:20;;;;;;;30.80;22.08;;;;;;;;;;5012525;28;20037;-71
2023/05/12 06:43:46;;;;;;;30.70;22.83;;;;;;;;;;5013543;28;20057;-71
2023/05/12 06:46:11;;;;;;;26.27;19.33;;;;;;;;;;5013818;28;20054;-70
2023/05/12 06:48:36;;;;;;;24.98;19.60;;;;;;;;;;5013175;28;20018;-70
2023/05/12 06:51:02;;;;;;;26.52;18.80;;;;;;;;;;5004661;28;20053;-71
2023/05/12 06:53:28;;;;;;;23.17;18.55;;;;;;;;;;4994482;28;20037;-72
2023/05/12 06:55:53;;;;;;;20.80;16.92;;;;;;;;;;5002419;28;20041;-72
2023/05/12 06:58:20;;;;;;;22.45;17.13;;;;;;;;;;5012652;28;20026;-72
2023/05/12 07:00:46;;;;;;;21.02;16.35;;;;;;;;;;5013629;28;20026;-72
2023/05/12 07:03:11;;;;;;;22.17;15.77;;;;;;;;;;5013204;28;20065;-72
2023/05/12 07:05:36;;;;;;;18.70;15.10;;;;;;;;;;5013514;28;20437;-72
2023/05/12 07:08:02;;;;;;;17.98;14.88;;;;;;;;;;5013068;28;20061;-72
2023/05/12 07:10:27;;;;;;;20.25;14.48;;;;;;;;;;5000988;28;20106;-72
2023/05/12 07:12:53;;;;;;;17.42;13.18;;;;;;;;;;5013254;28;20029;-72
2023/05/12 07:15:18;;;;;;;16.58;12.68;;;;;;;;;;5012290;28;20044;-72
2023/05/12 07:17:43;;;;;;;17.00;12.32;;;;;;;;;;5013174;28;20084;-73
2023/05/12 07:20:09;;;;;;;16.50;12.15;;;;;;;;;;5012418;28;20026;-72
2023/05/12 07:22:35;;;;;;;13.15;11.75;;;;;;;;;;5013420;28;20107;-70
2023/05/12 07:25:01;;;;;;;13.55;11.63;;;;;;;;;;5012466;28;20034;-70
2023/05/12 07:27:26;;;;;;;15.48;11.55;;;;;;;;;;5012660;28;20038;-70
2023/05/12 07:29:51;;;;;;;14.52;12.20;;;;;;;;;;5013270;28;20026;-70
2023/05/12 07:32:16;;;;;;;12.30;10.63;;;;;;;;;;5012562;28;20037;-70
2023/05/12 07:34:42;;;;;;;14.00;11.20;;;;;;;;;;5012549;28;20049;-70
2023/05/12 07:37:07;;;;;;;13.43;11.32;;;;;;;;;;5013172;28;20079;-70
2023/05/12 07:39:33;;;;;;;13.20;10.70;;;;;;;;;;5013104;28;20022;-70
2023/05/12 07:41:58;;;;;;;12.10;10.82;;;;;;;;;;5012078;28;20032;-71
2023/05/12 07:44:23;;;;;;;13.02;11.05;;;;;;;;;;5013141;28;20623;-70
2023/05/12 07:46:49;;;;;;;13.88;11.45;;;;;;;;;;5012391;28;20024;-70
2023/05/12 07:49:14;;;;;;;13.25;10.68;;;;;;;;;;5013180;28;20036;-70
2023/05/12 07:51:39;;;;;;;13.23;11.70;;;;;;;;;;5012096;28;20474;-70
2023/05/12 07:54:06;;;;;;;14.57;11.45;;;;;;;;;;5016832;28;20025;-70
2023/05/12 07:56:31;;;;;;;13.20;10.52;;;;;;;;;;5015881;28;20101;-71
2023/05/12 07:58:56;;;;;;;12.93;10.95;;;;;;;;;;5016537;28;20052;-71
2023/05/12 08:01:22;;;;;;;13.63;11.05;;;;;;;;;;5015825;28;20482;-70
2023/05/12 08:03:49;;;;;;;12.50;10.75;;;;;;;;;;5015523;28;20503;-70
2023/05/12 08:06:15;;;;;;;12.73;10.63;;;;;;;;;;5015037;28;20040;-70
2023/05/12 08:08:40;;;;;;;15.02;10.05;;;;;;;;;;5016699;28;20018;-70
2023/05/12 08:11:05;;;;;;;11.40;9.95;;;;;;;;;;5015879;28;20099;-73
2023/05/12 08:13:31;;;;;;;12.25;10.77;;;;;;;;;;5016320;28;20018;-71
2023/05/12 08:15:56;;;;;;;11.75;9.88;;;;;;;;;;5016012;28;20052;-70
2023/05/12 08:18:21;;;;;;;12.40;9.48;;;;;;;;;;5016172;28;20021;-70
2023/05/12 08:20:47;;;;;;;10.55;9.00;;;;;;;;;;5015670;28;20033;-70
2023/05/12 08:23:14;;;;;;;11.52;9.50;;;;;;;;;;5016138;28;20026;-70
2023/05/12 08:25:40;;;;;;;11.32;9.98;;;;;;;;;;5015107;28;20022;-70
2023/05/12 08:28:06;;;;;;;12.82;9.65;;;;;;;;;;5001235;28;20046;-71
2023/05/12 08:30:31;;;;;;;13.23;9.18;;;;;;;;;;5002030;28;20048;-70
2023/05/12 08:32:56;;;;;;;11.02;9.00;;;;;;;;;;5015446;28;20018;-71
2023/05/12 08:35:25;;;;;;;11.32;8.77;;;;;;;;;;5015880;28;20056;-71
2023/05/12 08:37:50;;;;;;;11.25;8.40;;;;;;;;;;5016172;28;20541;-71
2023/05/12 08:40:26;;;;;;;12.27;8.43;;;;;;;;;;5014529;28;20121;-71
2023/05/12 08:43:04;;;;;;;9.15;7.50;;;;;;;;;;5015405;28;20424;-70
2023/05/12 08:45:29;;;;;;;8.63;7.18;;;;;;;;;;5015930;28;20076;-70
2023/05/12 08:47:55;;;;;;;9.85;7.68;;;;;;;;;;5015785;28;20014;-71
2023/05/12 08:50:21;;;;;;;9.82;7.88;;;;;;;;;;5015012;28;20534;-70
2023/05/12 08:52:47;;;;;;;11.90;7.85;;;;;;;;;;5015783;28;20022;-71
2023/05/12 08:55:13;;;;;;;9.63;7.20;;;;;;;;;;5015013;28;20462;-71
2023/05/12 08:57:39;;;;;;;10.18;7.60;;;;;;;;;;5013861;28;20037;-71
2023/05/12 09:00:07;;;;;;;8.95;7.07;;;;;;;;;;5011280;28;20041;-70
2023/05/12 09:02:33;;;;;;;13.50;6.90;;;;;;;;;;5010501;28;20074;-71
2023/05/12 09:04:59;;;;;;;10.50;7.63;;;;;;;;;;4995820;28;20046;-71
2023/05/12 09:07:25;;;;;;;10.25;7.28;;;;;;;;;;4995610;28;20386;-71
2023/05/12 09:09:56;;;;;;;9.13;6.22;;;;;;;;;;4994629;28;20022;-71
2023/05/12 09:12:21;;;;;;;;;;;;;;;;;;4996058;28;20356;-71
2023/05/12 09:14:52;;;;;;;9.53;6.33;;;;;;;;;;4995266;28;19913;-71
2023/05/12 09:17:17;;;;;;;8.65;6.43;;;;;;;;;;4995564;28;20254;-70
2023/05/12 09:19:43;;;;;;;11.82;7.25;;;;;;;;;;4994709;28;20041;-71
2023/05/12 09:22:13;;;;;;;7.97;6.03;;;;;;;;;;4995632;28;20027;-71
2023/05/12 09:24:39;;;;;;;8.93;5.97;;;;;;;;;;4994180;28;20022;-70
2023/05/12 09:27:05;;;;;;;8.45;5.72;;;;;;;;;;4988924;28;20090;-71
2023/05/12 09:29:33;;;;;;;10.73;5.97;;;;;;;;;;4976232;28;20025;-71
2023/05/12 09:32:00;;;;;;;7.88;5.60;;;;;;;;;;4975708;28;20023;-71
2023/05/12 09:34:37;;;;;;;9.00;5.13;;;;;;;;;;4976087;28;20475;-71
2023/05/12 09:37:03;;;;;;;7.82;5.55;;;;;;;;;;4979464;28;20022;-71
2023/05/12 09:39:29;;;;;;;7.32;5.40;;;;;;;;;;4995078;28;20113;-71
2023/05/12 09:41:54;;;;;;;8.82;5.22;;;;;;;;;;4993618;28;20062;-71
2023/05/12 09:44:20;;;;;;;7.82;4.97;;;;;;;;;;4994635;28;20156;-72
2023/05/12 09:46:46;;;;;;;6.47;4.95;;;;;;;;;;4991272;28;20037;-71
2023/05/12 09:49:11;;;;;;;9.48;5.32;;;;;;;;;;4976345;28;20125;-71
2023/05/12 09:51:37;;;;;;;8.27;4.60;;;;;;;;;;4975405;28;20023;-70
2023/05/12 09:54:03;;;;;;;8.18;4.32;;;;;;;;;;4975743;28;20042;-71
2023/05/12 09:56:30;;;;;;;7.35;4.25;;;;;;;;;;4986665;28;20461;-71
2023/05/12 09:58:56;;;;;;;7.55;4.38;;;;;;;;;;4994652;28;20386;-71
2023/05/12 10:01:21;;;;;;;5.50;3.92;;;;;;;;;;4982576;28;20031;-71
2023/05/12 10:03:50;;;;;;;6.47;4.00;;;;;;;;;;5008832;28;20041;-71
2023/05/12 10:06:36;;;;;;;10.20;4.65;;;;;;;;;;4982460;28;20041;-71
2023/05/12 10:09:07;;;;;;;8.43;3.95;;;;;;;;;;4994842;28;20061;-71
2023/05/12 10:11:33;;;;;;;6.00;3.88;;;;;;;;;;5004415;28;20030;-71
2023/05/12 10:13:59;;;;;;;11.55;3.85;;;;;;;;;;5013907;28;20033;-71
2023/05/12 10:16:26;;;;;;;5.30;3.72;;;;;;;;;;5012362;28;20026;-71
2023/05/12 10:18:53;;;;;;;6.45;3.70;;;;;;;;;;5014276;28;20422;-70
2023/05/12 10:21:18;;;;;;;6.88;3.40;;;;;;;;;;5014102;28;20022;-71
2023/05/12 10:23:44;;;;;;;6.05;3.75;;;;;;;;;;5013815;28;20581;-71
2023/05/12 10:26:10;;;;;;;6.47;4.03;;;;;;;;;;5013185;28;20041;-71
2023/05/12 10:28:35;;;;;;;5.47;3.50;;;;;;;;;;4994974;28;20394;-71
2023/05/12 10:31:01;;;;;;;7.50;3.72;;;;;;;;;;4994142;28;20023;-71
2023/05/12 10:33:27;;;;;;;8.00;3.88;;;;;;;;;;4994145;28;20022;-71
2023/05/12 10:35:52;;;;;;;6.95;3.50;;;;;;;;;;4994758;28;20060;-71
2023/05/12 10:38:21;;;;;;;7.15;3.00;;;;;;;;;;5012395;28;20080;-71
2023/05/12 10:41:00;;;;;;;5.05;3.10;;;;;;;;;;5012583;28;20045;-71
2023/05/12 10:43:28;;;;;;;6.30;3.58;;;;;;;;;;5012965;28;20025;-71
2023/05/12 10:46:26;;;;;;;7.15;3.58;;;;;;;;;;4994492;28;20442;-71
2023/05/12 10:48:52;;;;;;;6.15;3.75;;;;;;;;;;4960746;28;20033;-71
2023/05/12 10:51:19;;;;;;;5.45;3.35;;;;;;;;;;5033250;28;20010;-71
2023/05/12 10:53:45;;;;;;;6.63;3.38;;;;;;;;;;5029905;28;20052;-71
2023/05/12 10:56:10;;;;;;;5.72;3.38;;;;;;;;;;4995179;28;20026;-70
2023/05/12 10:58:36;;;;;;;4.97;3.17;;;;;;;;;;5013505;28;20465;-71
2023/05/12 11:01:05;;;;;;;5.70;3.60;;;;;;;;;;5013632;28;20029;-71
2023/05/12 11:03:32;;;;;;;5.97;3.85;;;;;;;;;;5012278;28;20052;-71
2023/05/12 11:06:04;;;;;;;9.23;4.10;;;;;;;;;;5001300;28;20496;-71
2023/05/12 11:08:30;;;;;;;5.20;3.20;;;;;;;;;;4995787;28;20036;-71
2023/05/12 11:10:56;;;;;;;5.25;3.30;;;;;;;;;;5005320;28;20022;-71
2023/05/12 11:13:21;;;;;;;5.90;3.80;;;;;;;;;;5012283;28;20022;-71
2023/05/12 11:15:46;;;;;;;4.90;2.75;;;;;;;;;;5012935;28;20018;-70
2023/05/12 11:18:12;;;;;;;6.30;2.88;;;;;;;;;;5013375;28;20091;-71
2023/05/12 11:20:37;;;;;;;6.15;3.30;;;;;;;;;;4998622;28;20030;-71
2023/05/12 11:23:02;;;;;;;4.97;2.90;;;;;;;;;;4993826;28;20541;-71
2023/05/12 11:25:28;;;;;;;5.50;2.88;;;;;;;;;;4993356;28;20049;-70
2023/05/12 11:27:53;;;;;;;6.15;2.97;;;;;;;;;;5009461;28;20056;-71
2023/05/12 11:30:19;;;;;;;4.95;2.88;;;;;;;;;;5017235;28;20463;-71
2023/05/12 11:32:44;;;;;;;5.90;2.88;;;;;;;;;;5017030;28;20110;-71
2023/05/12 11:35:10;;;;;;;6.57;2.28;;;;;;;;;;5017284;28;20022;-71
2023/05/12 11:37:37;;;;;;;4.45;2.47;;;;;;;;;;5010667;28;20394;-71
2023/05/12 11:40:10;;;;;;;4.80;2.75;;;;;;;;;;5016369;28;20386;-71
2023/05/12 11:42:36;;;;;;;4.55;2.60;;;;;;;;;;5016219;28;20049;-70
2023/05/12 11:45:01;;;;;;;5.10;2.85;;;;;;;;;;5017016;28;20054;-72
2023/05/12 11:47:27;;;;;;;6.00;2.75;;;;;;;;;;5015502;28;20034;-70
2023/05/12 11:49:56;;;;;;;5.28;2.47;;;;;;;;;;5016962;28;20025;-71
2023/05/12 11:52:22;;;;;;;4.53;2.55;;;;;;;;;;5016441;28;20018;-70
2023/05/12 11:54:49;;;;;;;4.97;2.75;;;;;;;;;;5016689;28;20065;-71
2023/05/12 11:57:23;;;;;;;4.45;2.50;;;;;;;;;;5015804;28;20466;-71
2023/05/12 11:59:55;;;;;;;5.63;2.90;;;;;;;;;;5011776;28;20026;-70
2023/05/12 12:02:20;;;;;;;7.18;3.10;;;;;;;;;;5001288;28;20046;-70
2023/05/12 12:04:46;;;;;;;4.97;3.03;;;;;;;;;;5008083;28;20029;-70
2023/05/12 12:07:11;;;;;;;9.73;3.45;;;;;;;;;;5020987;28;20389;-70
2023/05/12 12:09:39;;;;;;;6.90;3.00;;;;;;;;;;5001860;28;20034;-71
2023/05/12 12:12:05;;;;;;;8.20;2.70;;;;;;;;;;5011113;28;20041;-71
2023/05/12 12:14:31;;;;;;;4.47;2.42;;;;;;;;;;5032987;28;20134;-71
2023/05/12 12:16:56;;;;;;;4.07;2.47;;;;;;;;;;5002772;28;20022;-71
2023/05/12 12:19:21;;;;;;;4.88;2.75;;;;;;;;;;4997648;28;20022;-69
2023/05/12 12:21:49;;;;;;;4.68;2.72;;;;;;;;;;5010056;28;20017;-70
2023/05/12 12:24:15;;;;;;;6.68;3.00;;;;;;;;;;5005513;28;20038;-69
2023/05/12 12:26:40;;;;;;;6.57;3.35;;;;;;;;;;5009078;28;20081;-70
2023/05/12 12:29:05;;;;;;;4.03;2.60;;;;;;;;;;5016245;28;20405;-69
2023/05/12 12:31:33;;;;;;;6.88;3.58;;;;;;;;;;5016057;28;20024;-70
2023/05/12 12:33:58;;;;;;;5.25;3.00;;;;;;;;;;5015927;28;20025;-70
2023/05/12 12:36:23;;;;;;;5.00;2.90;;;;;;;;;;5015120;28;20022;-70
2023/05/12 12:38:48;;;;;;;7.40;3.30;;;;;;;;;;5014475;28;20026;-70
2023/05/12 12:41:14;;;;;;;4.30;2.70;;;;;;;;;;5014889;28;20124;-70
2023/05/12 12:43:39;;;;;;;5.63;2.85;;;;;;;;;;5015715;28;20120;-71
2023/05/12 12:46:04;;;;;;;6.55;3.03;;;;;;;;;;5015111;28;20037;-70
2023/05/12 12:48:30;;;;;;;7.50;3.38;;;;;;;;;;5015407;28;20441;-70
2023/05/12 12:50:56;;;;;;;4.43;2.75;;;;;;;;;;5015917;28;20029;-71
2023/05/12 12:53:21;;;;;;;5.75;3.35;;;;;;;;;;5015518;28;20377;-70
2023/05/12 12:55:46;;;;;;;5.00;3.30;;;;;;;;;;5014882;28;20417;-71
2023/05/12 12:58:12;;;;;;;5.55;3.88;;;;;;;;;;5015744;28;20462;-70
2023/05/12 13:00:37;;;;;;;6.75;4.07;;;;;;;;;;5012746;28;20101;-71
2023/05/12 13:03:03;;;;;;;5.07;3.28;;;;;;;;;;4995328;28;20144;-70
2023/05/12 13:05:28;;;;;;;5.60;3.70;;;;;;;;;;4996498;28;20034;-70
2023/05/12 13:07:54;;;;;;;6.03;3.50;;;;;;;;;;4995299;28;20471;-70
2023/05/12 13:10:19;;;;;;;7.00;3.50;;;;;;;;;;5014717;28;20026;-71
2023/05/12 13:12:44;;;;;;;5.55;2.70;;;;;;;;;;5014361;28;20034;-71
2023/05/12 13:15:10;;;;;;;4.80;2.85;;;;;;;;;;5007648;28;20034;-71
2023/05/12 13:17:35;;;;;;;5.63;2.83;;;;;;;;;;5015004;28;20386;-71
2023/05/12 13:20:01;;;;;;;5.78;2.72;;;;;;;;;;5018663;28;20095;-71
2023/05/12 13:22:27;;;;;;;8.60;2.90;;;;;;;;;;5034659;28;20032;-71
2023/05/12 13:24:53;;;;;;;5.38;2.90;;;;;;;;;;5027678;28;20080;-71
2023/05/12 13:27:18;;;;;;;7.80;3.72;;;;;;;;;;5006914;28;20455;-71
2023/05/12 13:29:46;;;;;;;7.72;4.22;;;;;;;;;;4995977;28;20022;-70
2023/05/12 13:32:11;;;;;;;5.95;3.58;;;;;;;;;;4995622;28;20545;-71
2023/05/12 13:34:37;;;;;;;5.45;3.00;;;;;;;;;;4994931;28;20022;-71
2023/05/12 13:37:02;;;;;;;6.20;3.13;;;;;;;;;;5003412;28;20017;-71
2023/05/12 13:39:27;;;;;;;5.35;2.80;;;;;;;;;;5000268;28;20018;-71
2023/05/12 13:41:52;;;;;;;5.07;2.80;;;;;;;;;;5014826;28;20379;-71
2023/05/12 13:44:18;;;;;;;5.10;2.75;;;;;;;;;;5013307;28;20026;-71
2023/05/12 13:46:43;;;;;;;4.95;2.97;;;;;;;;;;5014039;28;20017;-70
2023/05/12 13:49:08;;;;;;;5.43;2.78;;;;;;;;;;5014044;28;20030;-70
2023/05/12 13:51:34;;;;;;;4.55;2.50;;;;;;;;;;5014576;28;20493;-70
2023/05/12 13:53:59;;;;;;;6.13;2.58;;;;;;;;;;5014076;28;20021;-71
2023/05/12 13:56:24;;;;;;;5.00;2.55;;;;;;;;;;5014304;28;20029;-71
2023/05/12 13:58:50;;;;;;;6.28;2.80;;;;;;;;;;5013958;28;20033;-73
2023/05/12 14:01:15;;;;;;;6.38;2.70;;;;;;;;;;5014597;28;20018;-72
2023/05/12 14:03:41;;;;;;;7.28;2.42;;;;;;;;;;5013934;28;20506;-72
2023/05/12 14:06:06;;;;;;;5.30;3.10;;;;;;;;;;5007691;28;20029;-73
2023/05/12 14:08:32;;;;;;;5.45;2.80;;;;;;;;;;5014504;28;20466;-72
2023/05/12 14:10:57;;;;;;;5.65;2.80;;;;;;;;;;5012102;28;20048;-72
2023/05/12 14:13:25;;;;;;;4.75;2.55;;;;;;;;;;5014188;28;20050;-73
2023/05/12 14:15:52;;;;;;;4.88;2.90;;;;;;;;;;5005695;28;20033;-73